Main page
METAR-TAF:

METAR-TAF

Airports :

Djibouti–Ambouli International Airport

Djibouti, Djibouti

latitude: 11-33N, longitude: 043-10E, elevation: 49 m

Current weather observation

The report was made 11 hours and 57 minutes ago, at 13:00 UTC
Wind 10 kt from the East/Southeast
Temperature 30°C
Humidity 55%
Pressure 1014 hPa
Visibility 10 km or more
Few clouds at a height of 2300 ft

METAR: HDAM 151300Z 11010KT 9999 FEW023 30/20 Q1014

Time: 03:57 (00:57 UTC)

Forecast

Forecast valid from 16 at 00 UTC to 16 at 24 UTC
Wind 10 kt from the East
Visibility 10 km or more
Scattered clouds at a height of 2000 ft
Becoming
from 16 at 03 UTC to 16 at 12 UTC
Wind 10 kt from the East with gusts up to 15 kt
Scattered clouds at a height of 2300 ft
Becoming
from 16 at 15 UTC to 16 at 18 UTC
Wind 5 kt from variable directions
Few clouds at a height of 2000 ft

TAF: HDAM 1600/1624 10010KT 9999 SCT020 BECMG 1603/1612 08010G15KT SCT023 BECMG 1615/1618 VRB05KT FEW020

Weather observations and forecasts of more than 4000 airports (METAR and TAF reports).

The available stations are represented by yellow and red dots on the map.

Hover mouse over dot to see the name of the station.

Then click to see weather observations and forecasts.

To change the map : click on the green buttons with a black cross to zoom in, on the green button with a dash to zoom out, or on the green arrows for adjacent maps.


METAR-TAF: